createdAt,value
2023-03-17T00:00:57.529Z,6.60
2023-03-17T00:03:26.650Z,6.60
2023-03-17T00:05:58.271Z,6.60
2023-03-17T00:08:35.220Z,6.70
2023-03-17T00:11:02.167Z,6.70
2023-03-17T00:13:32.533Z,6.80
2023-03-17T00:16:06.750Z,6.80
2023-03-17T00:18:37.305Z,6.80
2023-03-17T00:21:07.340Z,6.80
2023-03-17T00:23:38.903Z,6.80
2023-03-17T00:26:09.404Z,6.80
2023-03-17T00:28:44.860Z,6.80
2023-03-17T00:31:20.207Z,6.80
2023-03-17T00:33:51.602Z,6.80
2023-03-17T00:36:23.580Z,6.80
2023-03-17T00:38:51.838Z,6.70
2023-03-17T00:41:21.829Z,6.80
2023-03-17T00:43:52.898Z,6.80
2023-03-17T00:46:56.029Z,6.70
2023-03-17T00:49:28.458Z,6.70
2023-03-17T00:51:55.076Z,6.60
2023-03-17T00:54:27.960Z,6.70
2023-03-17T00:56:57.728Z,6.60
2023-03-17T00:59:41.626Z,6.60
2023-03-17T01:02:13.825Z,6.60
2023-03-17T01:04:47.600Z,6.60
2023-03-17T01:07:21.869Z,6.60
2023-03-17T01:09:51.282Z,6.60
2023-03-17T01:12:18.000Z,6.60
2023-03-17T01:14:45.295Z,6.60
2023-03-17T01:17:17.481Z,6.60
2023-03-17T01:19:45.361Z,6.60
2023-03-17T01:22:14.548Z,6.50
2023-03-17T01:24:42.561Z,6.50
2023-03-17T01:27:10.817Z,6.50
2023-03-17T01:29:38.000Z,6.50
2023-03-17T01:32:09.958Z,6.60
2023-03-17T01:34:36.679Z,6.60
2023-03-17T01:37:12.777Z,6.60
2023-03-17T01:39:45.867Z,6.50
2023-03-17T01:42:16.856Z,6.40
2023-03-17T01:45:06.523Z,6.30
2023-03-17T01:50:31.040Z,6.20
2023-03-17T01:55:56.074Z,6.10
2023-03-17T01:58:24.921Z,6.10
2023-03-17T02:00:54.925Z,6.10
2023-03-17T02:03:25.318Z,6.00
2023-03-17T02:05:53.967Z,6.00
2023-03-17T02:08:22.411Z,6.00
2023-03-17T02:10:49.901Z,6.00
2023-03-17T02:13:18.677Z,6.00
2023-03-17T02:15:48.825Z,6.00
2023-03-17T02:18:18.406Z,6.00
2023-03-17T02:20:49.294Z,6.00
2023-03-17T02:23:20.312Z,6.00
2023-03-17T02:25:53.438Z,6.00
2023-03-17T02:28:25.141Z,6.10
2023-03-17T02:30:53.642Z,6.00
2023-03-17T02:33:20.292Z,6.00
2023-03-17T02:36:12.343Z,6.00
2023-03-17T02:38:41.492Z,5.90
2023-03-17T02:41:10.782Z,5.80
2023-03-17T02:43:37.689Z,5.80
2023-03-17T02:46:05.007Z,5.80
2023-03-17T02:48:35.869Z,5.70
2023-03-17T02:51:07.732Z,5.70
2023-03-17T02:53:39.233Z,5.70
2023-03-17T02:56:11.079Z,5.60
2023-03-17T02:58:43.537Z,5.60
2023-03-17T03:01:14.945Z,5.60
2023-03-17T03:03:41.626Z,5.60
2023-03-17T03:06:12.598Z,5.60
2023-03-17T03:08:44.540Z,5.50
2023-03-17T03:11:11.333Z,5.50
2023-03-17T03:13:40.171Z,5.50
2023-03-17T03:16:09.863Z,5.50
2023-03-17T03:18:39.013Z,5.50
2023-03-17T03:21:06.570Z,5.40
2023-03-17T03:23:33.931Z,5.30
2023-03-17T03:26:00.650Z,5.20
2023-03-17T03:28:31.974Z,5.10
2023-03-17T03:30:58.793Z,5.10
2023-03-17T03:33:29.487Z,5.10
2023-03-17T03:35:56.469Z,5.10
2023-03-17T03:38:25.368Z,5.10
2023-03-17T03:40:54.962Z,5.00
2023-03-17T03:43:23.773Z,5.00
2023-03-17T03:45:53.905Z,4.90
2023-03-17T03:48:25.590Z,4.90
2023-03-17T03:51:00.612Z,4.90
2023-03-17T03:53:33.750Z,4.80
2023-03-17T03:56:01.133Z,4.70
2023-03-17T03:58:36.537Z,4.60
2023-03-17T04:01:08.736Z,4.50
2023-03-17T04:03:38.802Z,4.40
2023-03-17T04:06:05.864Z,4.30
2023-03-17T04:08:36.864Z,4.20
2023-03-17T04:11:08.141Z,4.20
2023-03-17T04:13:35.272Z,4.10
2023-03-17T04:16:08.310Z,4.10
2023-03-17T04:18:35.455Z,4.10
2023-03-17T04:21:02.120Z,4.00
2023-03-17T04:23:30.685Z,3.90
2023-03-17T04:25:57.688Z,3.80
2023-03-17T04:28:24.398Z,3.80
2023-03-17T04:30:51.061Z,3.70
2023-03-17T04:33:22.785Z,3.70
2023-03-17T04:35:51.826Z,3.70
2023-03-17T04:38:21.709Z,3.60
2023-03-17T04:40:53.656Z,3.60
2023-03-17T04:43:45.597Z,3.50
2023-03-17T04:46:15.896Z,3.50
2023-03-17T04:48:47.282Z,3.40
2023-03-17T04:51:13.851Z,3.30
2023-03-17T04:53:45.853Z,3.20
2023-03-17T04:56:16.103Z,3.20
2023-03-17T04:58:45.822Z,3.10
2023-03-17T05:01:15.840Z,3.00
2023-03-17T05:03:44.606Z,3.00
2023-03-17T05:06:11.499Z,2.90
2023-03-17T05:08:38.352Z,2.90
2023-03-17T05:11:06.243Z,2.90
2023-03-17T05:13:35.181Z,2.90
2023-03-17T05:16:01.937Z,3.00
2023-03-17T05:18:34.127Z,2.90
2023-03-17T05:21:26.315Z,3.00
2023-03-17T05:23:56.859Z,2.90
2023-03-17T05:26:26.430Z,2.90
2023-03-17T05:28:55.299Z,2.90
2023-03-17T05:31:22.026Z,2.80
2023-03-17T05:33:50.308Z,2.80
2023-03-17T05:36:17.292Z,2.70
2023-03-17T05:38:44.212Z,2.70
2023-03-17T05:41:11.547Z,2.70
2023-03-17T05:43:38.538Z,2.60
2023-03-17T05:46:10.448Z,2.60
2023-03-17T05:48:37.453Z,2.60
2023-03-17T05:51:06.404Z,2.60
2023-03-17T05:53:33.174Z,2.70
2023-03-17T05:56:01.754Z,2.70
2023-03-17T05:58:28.427Z,2.80
2023-03-17T06:00:55.760Z,2.80
2023-03-17T06:03:22.573Z,2.90
2023-03-17T06:05:53.060Z,2.90
2023-03-17T06:08:51.614Z,2.90
2023-03-17T06:11:23.160Z,2.90
2023-03-17T06:13:52.218Z,2.90
2023-03-17T06:16:30.103Z,2.90
2023-03-17T06:18:56.834Z,2.90
2023-03-17T06:21:23.898Z,2.90
2023-03-17T06:23:50.558Z,2.90
2023-03-17T06:26:17.283Z,2.80
2023-03-17T06:28:47.074Z,2.80
2023-03-17T06:31:18.581Z,2.80
2023-03-17T06:33:50.361Z,2.80
2023-03-17T06:36:19.241Z,2.80
2023-03-17T06:38:45.901Z,2.80
2023-03-17T06:41:18.391Z,2.80
2023-03-17T06:43:45.843Z,2.90
2023-03-17T06:46:15.853Z,2.90
2023-03-17T06:48:44.693Z,3.00
2023-03-17T06:51:12.335Z,3.10
2023-03-17T06:53:38.965Z,3.20
2023-03-17T06:56:05.923Z,3.20
2023-03-17T06:58:32.645Z,3.30
2023-03-17T07:00:59.642Z,3.40
2023-03-17T07:03:27.105Z,3.50
2023-03-17T07:05:56.047Z,3.60
2023-03-17T07:08:25.818Z,3.70
2023-03-17T07:10:56.634Z,3.80
2023-03-17T07:13:26.533Z,3.90
2023-03-17T07:15:59.102Z,4.00
2023-03-17T07:18:33.026Z,4.10
2023-03-17T07:21:02.116Z,4.30
2023-03-17T07:23:29.662Z,4.40
2023-03-17T07:25:56.897Z,4.50
2023-03-17T07:28:26.382Z,4.70
2023-03-17T07:30:53.051Z,4.80
2023-03-17T07:33:22.878Z,4.90
2023-03-17T07:35:53.486Z,5.00
2023-03-17T07:38:24.389Z,5.10
2023-03-17T07:40:53.302Z,5.20
2023-03-17T07:43:20.051Z,5.30
2023-03-17T07:56:28.451Z,6.20
2023-03-17T07:58:59.947Z,6.50
2023-03-17T08:01:27.984Z,6.70
2023-03-17T08:04:01.893Z,7.00
2023-03-17T08:06:29.352Z,7.20
2023-03-17T08:08:56.226Z,7.40
2023-03-17T08:11:27.723Z,7.70
2023-03-17T08:13:55.800Z,7.90
2023-03-17T08:16:22.757Z,8.20
2023-03-17T08:18:50.716Z,8.40
2023-03-17T08:21:19.824Z,8.50
2023-03-17T08:23:49.159Z,8.60
2023-03-17T08:26:18.463Z,8.70
2023-03-17T08:28:48.218Z,8.80
2023-03-17T08:31:20.064Z,9.00
2023-03-17T08:33:50.826Z,9.30
2023-03-17T08:36:18.937Z,9.60
2023-03-17T08:38:47.332Z,9.80
2023-03-17T08:41:17.496Z,10.00
2023-03-17T08:43:45.094Z,10.30
2023-03-17T08:46:30.201Z,10.50
2023-03-17T08:49:00.256Z,10.80
2023-03-17T08:51:36.212Z,11.10
2023-03-17T08:54:05.076Z,11.30
2023-03-17T08:56:32.340Z,11.70
2023-03-17T08:58:59.421Z,11.90
2023-03-17T09:01:32.259Z,12.10
2023-03-17T09:03:59.457Z,12.40
2023-03-17T09:06:29.547Z,12.70
2023-03-17T09:08:57.909Z,12.90
2023-03-17T09:11:29.643Z,13.20
2023-03-17T09:13:56.680Z,13.30
2023-03-17T09:16:27.281Z,13.50
2023-03-17T09:18:56.524Z,13.60
2023-03-17T09:21:23.174Z,13.80
2023-03-17T09:23:49.936Z,13.80
2023-03-17T09:26:19.757Z,13.80
2023-03-17T09:28:46.740Z,13.80
2023-03-17T09:31:19.815Z,13.90
2023-03-17T09:33:46.748Z,14.10
2023-03-17T09:36:15.196Z,14.30
2023-03-17T09:38:42.146Z,14.60
2023-03-17T09:41:17.719Z,14.80
2023-03-17T09:44:06.940Z,15.00
2023-03-17T09:46:47.250Z,15.10
2023-03-17T09:49:21.992Z,15.30
2023-03-17T09:51:52.531Z,15.60
2023-03-17T09:54:33.614Z,15.60
2023-03-17T09:57:09.699Z,15.50
2023-03-17T09:59:52.151Z,15.60
2023-03-17T10:02:26.400Z,15.80
2023-03-17T10:04:57.325Z,16.20
2023-03-17T10:07:39.294Z,16.50
2023-03-17T10:10:21.025Z,16.80
2023-03-17T10:12:50.615Z,17.00
2023-03-17T10:15:20.256Z,17.20
2023-03-17T10:17:47.529Z,17.10
2023-03-17T10:20:17.902Z,17.10
2023-03-17T10:22:47.289Z,16.90
2023-03-17T10:25:20.876Z,16.90
2023-03-17T10:27:56.497Z,16.80
2023-03-17T10:30:23.606Z,16.80
2023-03-17T10:32:57.924Z,16.80
2023-03-17T10:35:35.430Z,17.00
2023-03-17T10:38:18.238Z,17.10
2023-03-17T10:40:58.142Z,17.20
2023-03-17T10:43:30.241Z,17.20
2023-03-17T10:46:05.659Z,17.20
2023-03-17T10:48:40.911Z,17.20
2023-03-17T10:51:09.103Z,17.30
2023-03-17T10:53:44.165Z,17.50
2023-03-17T10:56:39.136Z,17.80
2023-03-17T10:59:14.380Z,18.00
2023-03-17T11:01:55.567Z,18.00
2023-03-17T11:04:27.306Z,18.10
2023-03-17T11:07:04.634Z,18.10
2023-03-17T11:09:37.442Z,18.10
2023-03-17T11:12:17.481Z,17.90
2023-03-17T11:14:44.123Z,17.80
2023-03-17T11:17:30.850Z,17.60
2023-03-17T11:20:18.435Z,17.70
2023-03-17T11:22:57.242Z,17.80
2023-03-17T11:25:27.768Z,18.00
2023-03-17T11:28:19.106Z,18.10
2023-03-17T11:30:51.237Z,18.30
2023-03-17T11:33:33.058Z,18.40
2023-03-17T11:36:36.681Z,18.60
2023-03-17T11:39:16.673Z,18.70
2023-03-17T11:42:15.461Z,18.80
2023-03-17T11:45:25.053Z,18.80
2023-03-17T11:48:07.451Z,18.90
2023-03-17T11:51:04.165Z,19.10
2023-03-17T11:54:03.292Z,19.30
2023-03-17T11:56:39.302Z,19.40
2023-03-17T11:59:19.066Z,19.40
2023-03-17T12:02:06.543Z,19.40
2023-03-17T12:04:42.693Z,19.20
2023-03-17T12:07:30.754Z,19.00
2023-03-17T12:10:08.956Z,19.20
2023-03-17T12:12:43.671Z,19.20
2023-03-17T12:15:59.215Z,19.20
2023-03-17T12:18:47.993Z,19.30
2023-03-17T12:21:36.221Z,19.30
2023-03-17T12:24:50.318Z,19.30
2023-03-17T12:27:33.362Z,19.20
2023-03-17T12:30:16.925Z,19.10
2023-03-17T12:32:49.413Z,19.10
2023-03-17T12:35:33.653Z,19.10
2023-03-17T12:38:16.866Z,19.20
2023-03-17T12:50:23.524Z,19.60
2023-03-17T12:52:52.163Z,19.70
2023-03-17T12:55:24.705Z,19.80
2023-03-17T12:58:10.100Z,19.90
2023-03-17T13:00:49.882Z,19.90
2023-03-17T13:03:27.523Z,19.90
2023-03-17T13:06:11.531Z,20.10
2023-03-17T13:08:42.386Z,20.30
2023-03-17T13:11:15.457Z,20.60
2023-03-17T13:13:54.259Z,20.80
2023-03-17T13:16:27.466Z,20.90
2023-03-17T13:19:15.814Z,20.90
2023-03-17T13:21:52.707Z,21.00
2023-03-17T13:24:47.363Z,21.00
2023-03-17T13:27:37.225Z,20.90
2023-03-17T13:30:23.486Z,20.80
2023-03-17T13:33:10.612Z,20.70
2023-03-17T13:36:10.844Z,20.70
2023-03-17T13:39:05.099Z,20.60
2023-03-17T13:41:49.129Z,20.60
2023-03-17T13:45:15.535Z,20.60
2023-03-17T13:47:45.163Z,20.60
2023-03-17T13:50:15.615Z,20.80
2023-03-17T13:52:54.737Z,20.90
2023-03-17T13:55:47.152Z,21.00
2023-03-17T13:58:25.460Z,21.10
2023-03-17T14:01:01.834Z,21.10
2023-03-17T14:03:36.665Z,21.00
2023-03-17T14:06:14.142Z,21.00
2023-03-17T14:08:52.376Z,20.90
2023-03-17T14:11:31.885Z,20.80
2023-03-17T14:14:33.368Z,20.70
2023-03-17T14:17:20.976Z,20.50
2023-03-17T14:20:30.519Z,20.30
2023-03-17T14:23:02.308Z,20.30
2023-03-17T14:25:42.148Z,20.20
2023-03-17T14:28:15.145Z,20.30
2023-03-17T14:30:53.139Z,20.30
2023-03-17T14:33:28.083Z,20.30
2023-03-17T14:36:05.561Z,20.10
2023-03-17T14:38:39.706Z,20.10
2023-03-17T14:50:29.017Z,19.90
2023-03-17T14:52:59.577Z,19.80
2023-03-17T14:55:42.701Z,19.80
2023-03-17T14:58:34.831Z,19.80
2023-03-17T15:01:42.261Z,19.80
2023-03-17T15:04:16.117Z,19.60
2023-03-17T15:07:01.308Z,19.40
2023-03-17T15:09:47.363Z,19.20
2023-03-17T15:12:23.882Z,18.90
2023-03-17T15:15:03.068Z,18.80
2023-03-17T15:17:35.362Z,18.80
2023-03-17T15:20:07.610Z,18.70
2023-03-17T15:22:37.688Z,18.70
2023-03-17T15:25:23.369Z,18.60
2023-03-17T15:27:51.768Z,18.60
2023-03-17T15:30:19.202Z,18.50
2023-03-17T15:32:51.222Z,18.30
2023-03-17T15:35:18.454Z,18.30
2023-03-17T15:37:45.230Z,18.20
2023-03-17T15:40:13.128Z,18.10
2023-03-17T15:42:42.564Z,18.20
2023-03-17T15:45:19.254Z,18.00
2023-03-17T15:47:46.626Z,18.00
2023-03-17T15:50:19.384Z,17.90
2023-03-17T15:52:46.191Z,17.70
2023-03-17T15:55:21.216Z,17.60
2023-03-17T15:57:54.789Z,17.60
2023-03-17T16:00:28.173Z,17.50
2023-03-17T16:03:06.609Z,17.50
2023-03-17T16:05:35.976Z,17.50
2023-03-17T16:08:02.823Z,17.40
2023-03-17T16:10:31.483Z,17.30
2023-03-17T16:12:58.524Z,17.30
2023-03-17T16:15:30.163Z,17.30
2023-03-17T16:17:59.640Z,17.30
2023-03-17T16:23:13.427Z,17.10
2023-03-17T16:25:41.009Z,17.10
2023-03-17T16:28:14.081Z,17.00
2023-03-17T16:30:46.683Z,16.90
2023-03-17T16:33:18.075Z,16.90
2023-03-17T16:35:51.620Z,16.80
2023-03-17T16:38:21.380Z,16.70
2023-03-17T16:40:51.120Z,16.70
2023-03-17T16:43:27.948Z,16.70
2023-03-17T16:46:02.231Z,16.60
2023-03-17T16:48:32.033Z,16.50
2023-03-17T16:50:59.257Z,16.40
2023-03-17T16:53:26.049Z,16.40
2023-03-17T16:55:53.727Z,16.30
2023-03-17T16:58:23.297Z,16.30
2023-03-17T17:00:52.904Z,16.20
2023-03-17T17:03:22.257Z,16.20
2023-03-17T17:05:50.336Z,16.10
2023-03-17T17:08:17.021Z,15.90
2023-03-17T17:10:46.413Z,15.90
2023-03-17T17:13:13.376Z,15.80
2023-03-17T17:15:41.643Z,15.70
2023-03-17T17:18:17.597Z,15.70
2023-03-17T17:20:48.073Z,15.60
2023-03-17T17:23:20.675Z,15.50
2023-03-17T17:25:49.686Z,15.50
2023-03-17T17:28:19.068Z,15.40
2023-03-17T17:30:47.287Z,15.30
2023-03-17T17:33:18.480Z,15.20
2023-03-17T17:35:47.761Z,15.20
2023-03-17T17:38:33.081Z,15.10
2023-03-17T17:41:05.092Z,15.00
2023-03-17T17:43:32.476Z,14.90
2023-03-17T17:45:59.599Z,14.80
2023-03-17T17:48:27.172Z,14.70
2023-03-17T17:51:01.400Z,14.70
2023-03-17T17:53:28.127Z,14.60
2023-03-17T17:55:54.857Z,14.50
2023-03-17T17:58:23.388Z,14.50
2023-03-17T18:00:56.203Z,14.30
2023-03-17T18:03:24.557Z,14.20
2023-03-17T18:05:53.028Z,14.10
2023-03-17T18:08:20.131Z,14.00
2023-03-17T18:10:46.928Z,13.90
2023-03-17T18:13:13.723Z,13.80
2023-03-17T18:15:42.612Z,13.60
2023-03-17T18:18:09.281Z,13.50
2023-03-17T18:20:41.943Z,13.40
2023-03-17T18:23:09.003Z,13.30
2023-03-17T18:25:38.084Z,13.30
2023-03-17T18:28:11.059Z,13.20
2023-03-17T18:30:38.303Z,13.20
2023-03-17T18:35:59.006Z,13.00
2023-03-17T18:38:27.579Z,12.80
2023-03-17T18:40:58.093Z,12.70
2023-03-17T18:43:25.000Z,12.70
2023-03-17T18:45:52.851Z,12.60
2023-03-17T18:48:23.035Z,12.60
2023-03-17T18:50:50.096Z,12.50
2023-03-17T18:53:17.203Z,12.40
2023-03-17T18:55:49.573Z,12.40
2023-03-17T18:58:18.770Z,12.30
2023-03-17T19:00:48.133Z,12.30
2023-03-17T19:03:18.329Z,12.20
2023-03-17T19:08:38.650Z,12.10
2023-03-17T19:11:07.031Z,12.10
2023-03-17T19:13:42.172Z,12.00
2023-03-17T19:16:18.031Z,12.00
2023-03-17T19:18:45.000Z,12.00
2023-03-17T19:21:19.132Z,11.90
2023-03-17T19:23:46.526Z,11.90
2023-03-17T19:26:13.302Z,11.90
2023-03-17T19:28:45.972Z,11.90
2023-03-17T19:31:13.614Z,11.90
2023-03-17T19:33:41.338Z,11.80
2023-03-17T19:36:14.648Z,11.80
2023-03-17T19:38:50.492Z,11.70
2023-03-17T19:41:17.985Z,11.70
2023-03-17T19:43:46.107Z,11.70
2023-03-17T19:46:19.745Z,11.70
2023-03-17T19:48:50.792Z,11.60
2023-03-17T19:51:17.449Z,11.60
2023-03-17T19:53:47.145Z,11.60
2023-03-17T19:56:15.282Z,11.50
2023-03-17T19:58:46.305Z,11.40
2023-03-17T20:01:13.129Z,11.40
2023-03-17T20:03:41.941Z,11.30
2023-03-17T20:09:04.556Z,11.10
2023-03-17T20:11:35.081Z,11.00
2023-03-17T20:14:07.207Z,11.00
2023-03-17T20:17:01.739Z,10.80
2023-03-17T20:19:32.383Z,10.80
2023-03-17T20:21:59.158Z,10.80
2023-03-17T20:24:27.866Z,10.70
2023-03-17T20:26:56.583Z,10.70
2023-03-17T20:29:23.605Z,10.70
2023-03-17T20:31:50.558Z,10.70
2023-03-17T20:34:17.338Z,10.70
2023-03-17T20:37:09.154Z,10.70
2023-03-17T20:39:46.214Z,10.70
2023-03-17T20:42:20.144Z,10.70
2023-03-17T20:44:52.118Z,10.60
2023-03-17T20:47:22.180Z,10.50
2023-03-17T20:49:52.426Z,10.50
2023-03-17T20:58:24.143Z,10.40
2023-03-17T21:00:54.394Z,10.30
2023-03-17T21:03:23.330Z,10.30
2023-03-17T21:05:53.524Z,10.20
2023-03-17T21:08:20.348Z,10.10
2023-03-17T21:10:47.110Z,10.00
2023-03-17T21:13:18.510Z,9.90
2023-03-17T21:15:47.939Z,9.90
2023-03-17T21:18:17.030Z,9.80
2023-03-17T21:20:46.223Z,9.70
2023-03-17T21:23:13.944Z,9.60
2023-03-17T21:25:47.050Z,9.60
2023-03-17T21:28:14.530Z,9.60
2023-03-17T21:30:44.139Z,9.60
2023-03-17T21:33:11.053Z,9.60
2023-03-17T21:35:40.376Z,9.60
2023-03-17T21:38:07.393Z,9.60
2023-03-17T21:40:39.750Z,9.60
2023-03-17T21:43:09.322Z,9.60
2023-03-17T21:45:36.709Z,9.60
2023-03-17T21:48:06.786Z,9.60
2023-03-17T21:50:33.818Z,9.60
2023-03-17T21:53:08.517Z,9.50
2023-03-17T21:55:37.933Z,9.50
2023-03-17T21:58:04.644Z,9.50
2023-03-17T22:00:42.597Z,9.40
2023-03-17T22:03:14.130Z,9.40
2023-03-17T22:05:43.259Z,9.30
2023-03-17T22:08:10.075Z,9.30
2023-03-17T22:10:39.079Z,9.30
2023-03-17T22:13:08.300Z,9.30
2023-03-17T22:15:48.051Z,9.30
2023-03-17T22:18:15.037Z,9.30
2023-03-17T22:20:41.717Z,9.30
2023-03-17T22:23:09.874Z,9.30
2023-03-17T22:25:37.007Z,9.30
2023-03-17T22:28:03.958Z,9.20
2023-03-17T22:30:33.515Z,9.20
2023-03-17T22:33:03.163Z,9.20
2023-03-17T22:35:32.219Z,9.20
2023-03-17T22:38:00.050Z,9.20
2023-03-17T22:40:28.151Z,9.20
2023-03-17T22:42:56.313Z,9.20
2023-03-17T22:45:25.914Z,9.20
2023-03-17T22:47:55.348Z,9.20
2023-03-17T22:50:24.240Z,9.20
2023-03-17T22:52:53.351Z,9.20
2023-03-17T22:55:23.431Z,9.30
2023-03-17T22:57:50.130Z,9.30
2023-03-17T23:00:17.507Z,9.30
2023-03-17T23:02:47.621Z,9.30
2023-03-17T23:05:20.481Z,9.40
2023-03-17T23:07:51.496Z,9.40
2023-03-17T23:10:23.970Z,9.40
2023-03-17T23:15:49.492Z,9.40
2023-03-17T23:18:24.985Z,9.40
2023-03-17T23:20:54.389Z,9.40
2023-03-17T23:23:23.309Z,9.40
2023-03-17T23:25:52.128Z,9.40
2023-03-17T23:28:19.815Z,9.30
2023-03-17T23:30:47.402Z,9.30
2023-03-17T23:33:16.600Z,9.30
2023-03-17T23:35:49.476Z,9.30
2023-03-17T23:38:18.748Z,9.30
2023-03-17T23:40:46.352Z,9.20
2023-03-17T23:43:15.790Z,9.20
2023-03-17T23:45:45.111Z,9.20
2023-03-17T23:48:14.468Z,9.10
2023-03-17T23:50:43.689Z,9.10
2023-03-17T23:53:10.841Z,9.00
2023-03-17T23:55:42.882Z,8.90
2023-03-17T23:58:09.437Z,8.90
